Time;durP1;ratioP1;P1;durP2;ratioP2;P2;SDS_P1;SDS_P2;PMS_P1;PMS_P2;Temp;Humidity;BMP_temperature;BMP_pressure;BME280_temperature;BME280_humidity;BME280_pressure;Samples;Min_cycle;Max_cycle;Signal;HPM_P1;HPM_P2
2023/01/06 00:01:25;;;;;;;9.43;4.90;;;;;;;14.36;63.72;101728.72;6181936;23;20016;-69
2023/01/06 00:03:54;;;;;;;10.82;4.65;;;;;;;14.37;63.84;101722.34;6181632;22;20013;-69
2023/01/06 00:06:26;;;;;;;12.20;5.53;;;;;;;14.37;63.81;101721.50;6181700;23;20013;-70
2023/01/06 00:08:58;;;;;;;7.50;4.75;;;;;;;14.38;63.81;101717.81;6182004;23;20020;-69
2023/01/06 00:11:25;;;;;;;9.18;4.80;;;;;;;14.41;63.63;101714.88;6181979;23;20017;-70
2023/01/06 00:13:54;;;;;;;12.85;5.10;;;;;;;14.38;63.75;101710.56;6181536;23;20019;-71
2023/01/06 00:16:22;;;;;;;12.32;5.40;;;;;;;14.38;63.87;101697.06;6182010;23;20082;-70
2023/01/06 00:18:48;;;;;;;9.18;4.78;;;;;;;14.40;63.99;101691.53;6181578;23;20024;-70
2023/01/06 00:21:15;;;;;;;7.10;4.85;;;;;;;14.40;63.78;101696.94;6181669;23;20013;-70
2023/01/06 00:23:42;;;;;;;9.75;4.88;;;;;;;14.40;63.64;101687.00;6184746;23;20400;-70
2023/01/06 00:26:09;;;;;;;11.73;5.00;;;;;;;14.42;63.96;101684.19;6188430;23;20020;-70
2023/01/06 00:28:36;;;;;;;8.85;5.50;;;;;;;14.44;63.63;101693.06;6181641;23;20013;-70
2023/01/06 00:31:13;;;;;;;10.20;5.20;;;;;;;14.45;63.84;101690.25;6130877;23;20060;-70
2023/01/06 00:33:40;;;;;;;10.32;5.32;;;;;;;14.45;64.05;101684.84;6155267;23;20048;-70
2023/01/06 00:36:08;;;;;;;10.05;5.20;;;;;;;14.46;63.93;101691.97;6155289;22;20018;-70
2023/01/06 00:38:36;;;;;;;7.32;4.70;;;;;;;14.48;63.77;101697.28;6181834;23;20048;-70
2023/01/06 00:42:02;;;;;;;9.60;5.15;;;;;;;14.49;63.73;101699.00;6181205;23;20336;-70
2023/01/06 00:43:51;;;;;;;13.40;5.97;;;;;;;14.53;63.51;101704.06;6180640;23;20017;-69
2023/01/06 00:46:18;;;;;;;8.18;5.13;;;;;;;14.52;63.71;101696.94;6181381;23;20017;-70
2023/01/06 00:48:45;;;;;;;8.30;4.57;;;;;;;14.54;63.69;101699.53;6181406;23;20346;-69
2023/01/06 00:51:29;;;;;;;9.63;3.95;;;;;;;14.53;63.95;101698.66;6181381;23;20443;-70
2023/01/06 00:53:58;;;;;;;6.13;3.80;;;;;;;14.54;63.47;101696.81;6181218;23;20013;-70
2023/01/06 00:56:25;;;;;;;6.30;4.22;;;;;;;14.54;63.83;101689.56;6181270;23;20498;-69
2023/01/06 00:58:52;;;;;;;5.80;3.70;;;;;;;14.53;63.76;101695.97;6181325;23;20013;-70
2023/01/06 01:01:18;;;;;;;7.40;3.50;;;;;;;14.53;63.82;101682.44;6154884;23;20025;-69
2023/01/06 01:03:45;;;;;;;5.78;3.58;;;;;;;14.55;63.57;101687.72;6181124;23;20048;-70
2023/01/06 01:06:12;;;;;;;5.72;2.90;;;;;;;14.51;63.83;101681.69;6181042;23;20013;-68
2023/01/06 01:08:39;;;;;;;4.32;2.83;;;;;;;14.51;63.69;101688.94;6181471;23;20009;-70
2023/01/06 01:11:09;;;;;;;5.00;3.40;;;;;;;14.51;63.88;101686.22;6181037;23;20079;-70
2023/01/06 01:13:35;;;;;;;5.38;3.03;;;;;;;14.50;63.33;101684.50;6181096;23;20017;-70
2023/01/06 01:16:08;;;;;;;6.60;3.15;;;;;;;14.50;63.34;101696.19;6154909;23;20060;-69
2023/01/06 01:18:35;;;;;;;5.18;2.80;;;;;;;14.52;63.34;101688.81;6130186;23;20014;-69
2023/01/06 01:21:03;;;;;;;9.95;2.90;;;;;;;14.54;63.26;101680.59;6181314;23;20017;-70
2023/01/06 01:23:29;;;;;;;6.95;3.03;;;;;;;14.53;63.29;101679.75;6154580;23;20021;-69
2023/01/06 01:25:56;;;;;;;7.03;2.65;;;;;;;14.55;63.37;101685.91;6181079;23;20020;-70
2023/01/06 01:28:23;;;;;;;5.28;2.53;;;;;;;14.56;63.38;101679.50;6181075;23;20021;-70
2023/01/06 01:30:57;;;;;;;4.43;3.22;;;;;;;14.56;63.38;101676.81;6180945;23;20027;-69
2023/01/06 01:33:24;;;;;;;3.93;2.67;;;;;;;14.58;63.62;101674.84;6180860;23;20393;-71
2023/01/06 01:35:51;;;;;;;8.55;3.45;;;;;;;14.59;63.40;101678.41;6181051;23;20248;-69
2023/01/06 01:38:18;;;;;;;6.43;2.65;;;;;;;14.59;63.45;101679.28;6154573;23;20027;-70
2023/01/06 01:40:48;;;;;;;6.40;2.90;;;;;;;14.58;63.26;101674.84;6154659;23;20024;-70
2023/01/06 01:43:16;;;;;;;6.43;2.58;;;;;;;14.58;63.44;101680.25;6180257;23;20013;-69
2023/01/06 01:45:48;;;;;;;10.13;2.65;;;;;;;14.58;63.42;101674.00;6181089;23;20088;-70
2023/01/06 01:48:26;;;;;;;7.25;2.78;;;;;;;14.58;63.28;101674.00;6154469;23;20023;-70
2023/01/06 01:50:57;;;;;;;4.55;2.20;;;;;;;14.58;63.19;101669.44;6180932;23;20017;-69
2023/01/06 01:53:39;;;;;;;7.43;2.83;;;;;;;14.57;63.25;101665.00;6181049;23;20017;-69
2023/01/06 01:56:10;;;;;;;4.03;2.00;;;;;;;14.58;63.20;101658.63;6182328;23;20071;-70
2023/01/06 01:58:47;;;;;;;4.35;2.30;;;;;;;14.58;63.04;101658.63;6131553;23;20027;-69
2023/01/06 02:01:13;;;;;;;4.80;2.30;;;;;;;14.59;62.89;101640.56;6182563;23;20044;-71
2023/01/06 02:03:41;;;;;;;5.20;2.03;;;;;;;14.57;62.84;101639.81;6155763;23;20024;-69
2023/01/06 02:06:23;;;;;;;6.18;2.08;;;;;;;14.56;63.01;101644.38;6155858;23;20024;-71
2023/01/06 02:09:03;;;;;;;5.25;2.25;;;;;;;14.55;62.81;101631.84;6155838;23;20028;-70
2023/01/06 02:11:32;;;;;;;3.58;2.40;;;;;;;14.54;63.04;101637.34;6155963;23;20108;-70
2023/01/06 02:14:10;;;;;;;6.93;2.40;;;;;;;14.52;62.96;101634.75;6155778;23;20104;-70
2023/01/06 02:16:36;;;;;;;6.40;2.03;;;;;;;14.53;62.98;101633.78;6155939;23;20024;-70
2023/01/06 02:19:12;;;;;;;4.60;1.90;;;;;;;14.51;62.75;101629.47;6182005;23;20024;-70
2023/01/06 02:21:58;;;;;;;6.07;1.80;;;;;;;14.53;63.08;101624.81;6155748;23;20028;-71
2023/01/06 02:24:49;;;;;;;4.80;2.20;;;;;;;14.52;62.52;101629.34;6155678;23;20017;-70
2023/01/06 02:27:34;;;;;;;4.72;2.13;;;;;;;14.53;62.83;101625.69;6182206;23;20014;-70
2023/01/06 02:30:31;;;;;;;7.03;2.17;;;;;;;14.52;62.71;101620.38;6155740;23;20025;-69
2023/01/06 02:33:24;;;;;;;4.30;2.25;;;;;;;14.49;62.42;101624.19;6155601;23;20100;-70
2023/01/06 02:36:01;;;;;;;8.27;2.63;;;;;;;14.45;62.84;101628.09;6182167;23;20065;-70
2023/01/06 02:38:55;;;;;;;4.55;2.05;;;;;;;14.42;62.77;101622.03;6182010;23;20017;-70
2023/01/06 02:41:32;;;;;;;4.45;1.80;;;;;;;14.45;62.49;101627.22;6155881;23;20415;-70
2023/01/06 02:44:06;;;;;;;5.10;2.10;;;;;;;14.45;62.56;101611.03;6149087;23;20074;-70
2023/01/06 02:46:38;;;;;;;3.83;1.80;;;;;;;14.46;62.87;101599.22;6155920;23;20021;-71
2023/01/06 02:49:25;;;;;;;6.00;2.13;;;;;;;14.45;62.73;101590.25;6182038;23;20071;-71
2023/01/06 02:52:21;;;;;;;4.72;2.00;;;;;;;14.45;62.66;101590.25;6155325;22;20031;-71
2023/01/06 02:55:22;;;;;;;4.00;2.00;;;;;;;14.47;62.43;101587.44;6155638;23;20021;-71
2023/01/06 02:58:05;;;;;;;5.28;2.30;;;;;;;14.48;62.63;101581.06;6182052;23;20063;-70
2023/01/06 03:00:42;;;;;;;5.93;1.92;;;;;;;14.49;62.36;101580.06;6156354;23;20017;-70
2023/01/06 03:03:13;;;;;;;5.55;1.92;;;;;;;14.50;62.54;101568.28;6181781;23;20045;-69
2023/01/06 03:05:44;;;;;;;4.35;1.70;;;;;;;14.48;62.15;101562.13;6154906;23;20108;-70
2023/01/06 03:08:16;;;;;;;4.85;2.00;;;;;;;14.47;62.12;101561.28;6155857;23;20028;-70
2023/01/06 03:10:45;;;;;;;4.38;1.67;;;;;;;14.47;62.26;101563.97;6182356;23;20342;-70
2023/01/06 03:13:43;;;;;;;3.42;1.50;;;;;;;14.45;61.88;101562.38;6155178;23;20021;-70
2023/01/06 03:16:11;;;;;;;5.20;1.80;;;;;;;14.46;62.17;101556.00;6157382;23;20024;-70
2023/01/06 03:18:40;;;;;;;4.60;1.40;;;;;;;14.46;62.00;101554.16;6182138;23;20009;-71
2023/01/06 03:21:12;;;;;;;4.20;1.65;;;;;;;14.47;61.97;101569.38;6155683;23;20021;-70
2023/01/06 03:23:41;;;;;;;2.60;1.50;;;;;;;14.48;62.13;101565.69;6181796;23;20384;-70
2023/01/06 03:26:09;;;;;;;2.95;1.50;;;;;;;14.49;61.91;101569.28;6155308;23;20021;-70
2023/01/06 03:28:36;;;;;;;4.00;1.50;;;;;;;14.49;62.12;101563.88;6155460;23;20035;-69
2023/01/06 03:31:33;;;;;;;6.25;2.05;;;;;;;14.48;61.99;101563.00;6155747;23;20044;-70
2023/01/06 03:34:21;;;;;;;3.70;1.83;;;;;;;14.49;61.86;101558.47;6182197;23;20024;-70
2023/01/06 03:37:04;;;;;;;3.05;1.23;;;;;;;14.47;61.83;101553.16;6155522;23;20443;-69
2023/01/06 03:39:38;;;;;;;6.55;1.70;;;;;;;14.47;61.97;101565.81;6131251;23;20013;-70
2023/01/06 03:45:34;;;;;;;3.28;1.40;;;;;;;14.42;62.01;101555.34;6155366;23;20021;-69
2023/01/06 03:48:11;;;;;;;3.75;1.40;;;;;;;14.42;61.49;101557.16;6155355;23;20093;-69
2023/01/06 03:50:51;;;;;;;3.47;1.50;;;;;;;14.40;61.58;101549.19;6155631;23;20017;-69
2023/01/06 03:53:32;;;;;;;3.33;1.30;;;;;;;14.40;61.79;101545.59;6155590;22;20447;-69
2023/01/06 03:56:22;;;;;;;4.55;1.42;;;;;;;14.40;61.58;101540.19;6155262;23;20025;-69
2023/01/06 03:58:53;;;;;;;3.45;1.40;;;;;;;14.40;61.34;101549.19;6156000;23;20020;-71
2023/01/06 04:01:23;;;;;;;6.00;1.40;;;;;;;14.39;61.46;101552.84;6181574;23;20020;-69
2023/01/06 04:03:52;;;;;;;2.40;1.30;;;;;;;14.39;61.76;101558.25;6155247;23;20013;-70
2023/01/06 04:06:20;;;;;;;5.13;1.70;;;;;;;14.38;61.61;101553.84;6155768;23;20321;-71
2023/01/06 04:08:48;;;;;;;5.03;1.67;;;;;;;14.40;61.62;101546.47;6155449;23;20067;-70
2023/01/06 04:14:00;;;;;;;5.85;1.38;;;;;;;14.42;61.38;101547.25;6181832;23;20260;-69
2023/01/06 04:16:27;;;;;;;2.97;1.55;;;;;;;14.43;61.46;101548.13;6155256;22;20021;-70
2023/01/06 04:18:54;;;;;;;3.20;1.35;;;;;;;14.43;61.29;101530.06;6155307;23;20021;-70
2023/01/06 04:21:21;;;;;;;4.10;1.20;;;;;;;14.45;61.24;101535.34;6155445;22;20028;-69
2023/01/06 04:23:48;;;;;;;4.60;1.40;;;;;;;14.44;61.21;101523.66;6130383;23;20021;-69
2023/01/06 04:26:14;;;;;;;4.97;2.13;;;;;;;14.46;61.61;101521.72;6155224;23;20050;-69
2023/01/06 04:28:48;;;;;;;4.55;1.60;;;;;;;14.44;61.27;101518.28;6155294;23;20013;-69
2023/01/06 04:31:14;;;;;;;4.20;1.27;;;;;;;14.45;61.18;101509.19;6130707;23;20040;-70
2023/01/06 04:33:41;;;;;;;3.50;1.70;;;;;;;14.45;61.38;101501.06;6181281;23;20017;-69
2023/01/06 04:36:10;;;;;;;3.08;1.30;;;;;;;14.45;61.20;101494.81;6155222;23;20021;-70
2023/01/06 04:38:40;;;;;;;3.55;1.52;;;;;;;14.44;61.57;101499.34;6155315;23;20039;-69
2023/01/06 04:41:06;;;;;;;5.03;1.70;;;;;;;14.44;61.39;101495.78;6181667;23;20013;-69
2023/01/06 04:43:33;;;;;;;4.20;1.73;;;;;;;14.45;61.57;101497.50;6181018;23;20088;-69
2023/01/06 04:46:00;;;;;;;2.35;1.30;;;;;;;14.43;61.67;101485.97;6181378;23;20464;-69
2023/01/06 04:48:26;;;;;;;3.30;1.60;;;;;;;14.44;61.49;101475.03;6181362;23;20443;-69
2023/01/06 04:51:04;;;;;;;2.75;1.50;;;;;;;14.45;61.47;101475.88;6181423;23;20067;-69
2023/01/06 04:53:36;;;;;;;5.03;1.45;;;;;;;14.44;61.38;101469.63;6155101;23;20024;-69
2023/01/06 04:56:09;;;;;;;3.38;1.40;;;;;;;14.42;61.46;101473.38;6181143;23;20043;-70
2023/01/06 04:58:36;;;;;;;2.65;1.50;;;;;;;14.42;61.55;101463.47;6181024;23;20021;-69
2023/01/06 05:01:05;;;;;;;3.80;1.88;;;;;;;14.42;61.62;101462.59;6180820;22;20020;-69
2023/01/06 05:03:33;;;;;;;7.28;1.80;;;;;;;14.42;61.34;101452.66;6181167;22;20082;-69
2023/01/06 05:06:08;;;;;;;3.05;1.35;;;;;;;14.42;61.52;101449.97;6154778;23;20024;-70
2023/01/06 05:08:36;;;;;;;4.30;1.42;;;;;;;14.41;61.41;101467.13;6181225;23;20017;-69
2023/01/06 05:11:09;;;;;;;2.58;1.50;;;;;;;14.41;61.32;101450.91;6181202;23;20313;-69
2023/01/06 05:13:35;;;;;;;5.47;2.00;;;;;;;14.41;61.37;101445.50;6180613;23;20024;-69
2023/01/06 05:16:21;;;;;;;5.43;1.73;;;;;;;14.39;61.21;101447.47;6181400;23;20017;-69
2023/01/06 05:18:48;;;;;;;6.60;1.52;;;;;;;14.41;61.44;101452.75;6180988;23;20370;-69
2023/01/06 05:21:15;;;;;;;3.72;1.50;;;;;;;14.41;61.27;101450.03;6181147;22;20407;-69
2023/01/06 05:23:41;;;;;;;4.80;1.60;;;;;;;14.41;61.59;101440.09;6180553;22;20017;-69
2023/01/06 05:26:14;;;;;;;1.83;1.30;;;;;;;14.42;61.15;101455.38;6181087;23;20390;-69
2023/01/06 05:28:40;;;;;;;3.53;1.42;;;;;;;14.42;61.30;101439.16;6181684;23;20443;-69
2023/01/06 05:31:09;;;;;;;2.00;1.40;;;;;;;14.43;61.33;101440.00;6182558;23;20427;-69
2023/01/06 05:33:36;;;;;;;5.72;0.93;;;;;;;14.42;61.31;101441.84;6182740;22;20092;-69
2023/01/06 05:36:06;;;;;;;5.88;1.10;;;;;;;14.43;61.55;101445.41;6182369;23;20009;-69
2023/01/06 05:38:32;;;;;;;1.95;1.10;;;;;;;14.44;61.27;101439.03;6182376;23;20013;-69
2023/01/06 05:41:00;;;;;;;2.67;1.25;;;;;;;14.44;61.25;101437.19;6182462;22;20013;-69
2023/01/06 05:43:27;;;;;;;1.75;1.00;;;;;;;14.44;61.20;101450.72;6155819;23;20470;-69
2023/01/06 05:45:54;;;;;;;2.47;1.00;;;;;;;14.45;61.55;101455.13;6182244;23;20045;-69
2023/01/06 05:48:26;;;;;;;1.65;1.13;;;;;;;14.45;61.38;101448.88;6182421;22;20013;-69
2023/01/06 05:50:59;;;;;;;2.47;0.90;;;;;;;14.45;61.21;101449.72;6182638;22;20092;-69
2023/01/06 05:53:26;;;;;;;5.03;1.10;;;;;;;14.48;61.12;101456.72;6182490;22;20092;-68
2023/01/06 05:55:58;;;;;;;4.15;1.60;;;;;;;14.48;61.10;101449.50;6182232;23;20019;-70
2023/01/06 05:58:24;;;;;;;3.03;1.27;;;;;;;14.50;60.97;101457.47;6181892;23;20028;-69
2023/01/06 06:00:51;;;;;;;1.92;1.30;;;;;;;14.49;61.16;101459.31;6182199;23;20362;-69
2023/01/06 06:03:18;;;;;;;2.83;1.15;;;;;;;14.50;61.15;101454.78;6181944;23;20013;-69
2023/01/06 06:05:44;;;;;;;3.92;1.20;;;;;;;14.49;61.37;101456.63;6181783;23;20096;-68
2023/01/06 06:08:11;;;;;;;3.00;1.50;;;;;;;14.49;61.36;101456.63;6182042;23;20017;-69
2023/01/06 06:10:37;;;;;;;3.47;1.15;;;;;;;14.48;60.96;101460.28;6182188;23;20074;-68
2023/01/06 06:13:04;;;;;;;2.28;1.27;;;;;;;14.48;61.36;101454.88;6181981;23;20352;-69
2023/01/06 06:15:30;;;;;;;3.10;1.35;;;;;;;14.48;61.33;101452.19;6182093;23;20020;-69
2023/01/06 06:17:57;;;;;;;2.20;1.30;;;;;;;14.49;61.33;101455.75;6182040;23;20013;-69
2023/01/06 06:20:23;;;;;;;6.15;1.60;;;;;;;14.48;61.28;101445.91;6182598;23;20018;-69
2023/01/06 06:22:50;;;;;;;3.45;1.33;;;;;;;14.50;60.88;101450.22;6182165;23;20043;-69
2023/01/06 06:25:16;;;;;;;2.70;1.48;;;;;;;14.51;60.85;101442.97;6181975;23;20021;-69
2023/01/06 06:27:43;;;;;;;1.38;1.10;;;;;;;14.50;60.88;101441.25;6181966;23;20021;-69
2023/01/06 06:30:10;;;;;;;1.35;0.90;;;;;;;14.48;60.86;101438.69;6182139;23;20096;-70
2023/01/06 06:32:36;;;;;;;3.42;1.58;;;;;;;14.46;61.14;101443.34;6181984;23;20017;-71
2023/01/06 06:35:03;;;;;;;5.00;1.75;;;;;;;14.45;61.41;101447.03;6182269;23;20020;-70
2023/01/06 06:37:30;;;;;;;3.78;1.25;;;;;;;14.47;60.89;101444.19;6182413;23;20052;-69
2023/01/06 06:39:56;;;;;;;1.65;1.25;;;;;;;14.47;61.36;101445.06;6182137;23;20078;-69
2023/01/06 06:42:23;;;;;;;2.10;1.23;;;;;;;14.49;61.33;101439.53;6181791;23;20032;-69
2023/01/06 06:44:49;;;;;;;3.63;1.10;;;;;;;14.48;61.40;101441.38;6182019;23;20021;-69
2023/01/06 06:47:18;;;;;;;2.03;1.10;;;;;;;14.49;60.99;101444.94;6181964;23;20468;-69
2023/01/06 06:49:44;;;;;;;3.03;1.13;;;;;;;14.49;61.13;101440.41;6182272;23;20021;-70
2023/01/06 06:52:11;;;;;;;2.75;1.27;;;;;;;14.48;61.58;101438.69;6181756;23;20013;-70
2023/01/06 06:54:38;;;;;;;2.90;1.42;;;;;;;14.48;61.21;101440.50;6181477;23;20013;-69
2023/01/06 06:57:04;;;;;;;1.60;1.20;;;;;;;14.47;61.03;101446.91;6181758;23;20451;-69
2023/01/06 06:59:31;;;;;;;2.05;1.23;;;;;;;14.47;61.25;101445.06;6182125;23;20110;-70
2023/01/06 07:01:57;;;;;;;1.55;1.27;;;;;;;14.48;61.00;101446.78;6181548;23;20119;-69
2023/01/06 07:04:24;;;;;;;1.58;1.10;;;;;;;14.48;61.21;101440.50;6156131;23;20092;-70
2023/01/06 07:06:51;;;;;;;1.98;1.30;;;;;;;14.47;60.98;101442.34;6181579;23;20021;-70
2023/01/06 07:09:17;;;;;;;2.67;1.35;;;;;;;14.48;61.43;101441.38;6181805;23;20450;-71
2023/01/06 07:11:44;;;;;;;3.97;1.13;;;;;;;14.49;61.54;101450.34;6181712;23;20027;-70
2023/01/06 07:14:10;;;;;;;2.65;1.30;;;;;;;14.49;61.35;101456.63;6181801;23;20017;-69
2023/01/06 07:16:37;;;;;;;2.83;1.30;;;;;;;14.48;61.11;101454.88;6181721;22;20098;-72
2023/01/06 07:19:03;;;;;;;1.90;1.60;;;;;;;14.49;61.43;101453.06;6181882;23;20342;-71
2023/01/06 07:21:30;;;;;;;1.10;1.00;;;;;;;14.49;61.38;101456.63;6181769;23;20096;-70
2023/01/06 07:23:56;;;;;;;2.40;1.33;;;;;;;14.50;61.20;101460.19;6155391;23;20021;-69
2023/01/06 07:26:23;;;;;;;4.72;1.60;;;;;;;14.48;61.44;101460.28;6181782;23;20023;-70
2023/01/06 07:28:49;;;;;;;2.78;1.60;;;;;;;14.48;61.22;101465.69;6181987;22;20017;-70
2023/01/06 07:31:16;;;;;;;2.10;1.60;;;;;;;14.48;61.73;101463.00;6181689;23;20017;-70
2023/01/06 07:33:43;;;;;;;2.60;1.33;;;;;;;14.49;61.49;101469.25;6181753;23;20067;-70
2023/01/06 07:36:09;;;;;;;6.10;1.40;;;;;;;14.49;61.39;101475.53;6181857;23;20099;-70
2023/01/06 07:38:36;;;;;;;2.10;1.35;;;;;;;14.49;61.38;101477.38;6155737;23;20013;-70
2023/01/06 07:41:02;;;;;;;2.22;1.48;;;;;;;14.48;61.81;101484.63;6181696;23;20017;-69
2023/01/06 07:43:29;;;;;;;1.83;1.33;;;;;;;14.47;62.01;101480.19;6181615;23;20013;-70
2023/01/06 07:45:56;;;;;;;1.77;1.42;;;;;;;14.45;61.69;101474.03;6159493;23;20021;-69
2023/01/06 07:48:22;;;;;;;2.33;1.48;;;;;;;14.45;61.67;101474.03;6187734;23;20017;-70
2023/01/06 07:50:49;;;;;;;3.28;1.80;;;;;;;14.45;61.97;101476.75;6181313;23;20435;-69
2023/01/06 07:53:16;;;;;;;4.15;1.60;;;;;;;14.44;62.13;101479.56;6181528;23;20084;-70
2023/01/06 07:55:50;;;;;;;2.70;1.70;;;;;;;14.43;62.01;101492.22;6181497;22;20096;-72
2023/01/06 07:58:17;;;;;;;2.75;1.80;;;;;;;14.42;62.33;101487.78;6181673;22;20021;-70
2023/01/06 08:00:44;;;;;;;2.63;1.60;;;;;;;14.42;61.86;101492.31;6181808;23;20339;-70
2023/01/06 08:03:11;;;;;;;2.45;1.55;;;;;;;14.42;62.33;101495.00;6181178;23;20455;-71
2023/01/06 08:05:40;;;;;;;3.30;1.65;;;;;;;14.42;62.13;101501.31;6181493;23;20103;-70
2023/01/06 08:08:09;;;;;;;2.85;1.60;;;;;;;14.42;62.29;101501.31;6181930;23;20339;-70
2023/01/06 08:10:40;;;;;;;3.33;1.52;;;;;;;14.43;62.45;101503.03;6181782;23;20523;-70
2023/01/06 08:13:07;;;;;;;3.90;1.80;;;;;;;14.45;62.33;101514.59;6181220;22;20443;-70
2023/01/06 08:15:35;;;;;;;2.72;1.70;;;;;;;14.46;62.53;101510.03;6181414;23;20096;-72
2023/01/06 08:18:02;;;;;;;2.95;2.22;;;;;;;14.47;62.19;101509.94;6181913;23;20099;-71
2023/01/06 08:20:29;;;;;;;4.88;1.63;;;;;;;14.49;62.27;101505.25;6181592;23;20088;-71
2023/01/06 08:22:56;;;;;;;2.47;1.60;;;;;;;14.49;62.52;101518.78;6181508;23;20049;-71
2023/01/06 08:25:23;;;;;;;2.05;1.77;;;;;;;14.47;62.67;101525.28;6181478;23;20013;-70
2023/01/06 08:27:51;;;;;;;3.25;1.70;;;;;;;14.48;62.71;101529.72;6181365;23;20021;-71
2023/01/06 08:30:20;;;;;;;8.20;2.35;;;;;;;14.47;62.90;101525.28;6181700;23;20017;-71
2023/01/06 08:32:48;;;;;;;4.07;2.13;;;;;;;14.46;62.86;101537.94;6180901;23;20024;-69
2023/01/06 08:35:15;;;;;;;2.20;2.00;;;;;;;14.46;62.58;101542.47;6154993;23;20021;-71
2023/01/06 08:37:42;;;;;;;3.97;1.83;;;;;;;14.47;62.95;101536.09;6154503;22;20329;-70
2023/01/06 08:40:09;;;;;;;3.53;2.20;;;;;;;14.48;63.13;101537.81;6181454;23;20459;-69
2023/01/06 08:42:35;;;;;;;3.25;1.95;;;;;;;14.50;63.01;101544.81;6180912;23;20044;-70
2023/01/06 08:45:02;;;;;;;2.47;1.90;;;;;;;14.50;62.97;101554.78;6181254;23;20024;-70
2023/01/06 08:47:29;;;;;;;2.65;2.10;;;;;;;14.50;62.62;101554.78;6181110;22;20023;-69
2023/01/06 08:49:55;;;;;;;3.72;3.05;;;;;;;14.50;62.76;101550.22;6153845;23;20451;-68
2023/01/06 08:52:22;;;;;;;3.78;2.90;;;;;;;14.51;62.88;101557.34;6179641;22;20020;-70
2023/01/06 08:54:48;;;;;;;3.67;3.03;;;;;;;14.53;62.81;101554.53;6155229;23;20056;-68
2023/01/06 08:57:15;;;;;;;4.57;3.08;;;;;;;14.53;63.17;101563.50;6181194;23;20025;-70
2023/01/06 08:59:42;;;;;;;3.35;3.05;;;;;;;14.55;63.17;101575.06;6181077;23;20017;-67
2023/01/06 09:02:09;;;;;;;3.97;3.47;;;;;;;14.57;63.22;101574.94;6181496;23;20009;-66
2023/01/06 09:04:36;;;;;;;4.88;2.90;;;;;;;14.58;63.15;101580.25;6182576;23;20025;-68
2023/01/06 09:07:03;;;;;;;4.50;3.00;;;;;;;14.60;62.87;101582.81;6182578;23;20100;-67
2023/01/06 09:09:29;;;;;;;3.42;3.03;;;;;;;14.60;62.79;101593.63;6182412;23;20016;-67
2023/01/06 09:11:56;;;;;;;3.33;3.03;;;;;;;14.60;63.03;101589.09;6181396;22;20017;-67
2023/01/06 09:14:23;;;;;;;3.42;3.13;;;;;;;14.63;63.21;101599.66;6156431;23;20436;-67
2023/01/06 09:16:50;;;;;;;5.57;3.75;;;;;;;14.65;62.89;101601.41;6182320;23;20063;-68
2023/01/06 09:19:19;;;;;;;4.60;3.83;;;;;;;14.68;63.21;101596.63;6182007;23;20024;-67
2023/01/06 09:21:45;;;;;;;5.38;3.83;;;;;;;14.72;63.29;101613.47;6182044;23;20095;-67
2023/01/06 09:24:14;;;;;;;4.47;4.05;;;;;;;14.73;62.96;101609.78;6182650;23;20021;-67
2023/01/06 09:26:40;;;;;;;4.38;3.97;;;;;;;14.75;63.34;101608.69;6156297;23;20074;-68
2023/01/06 09:29:07;;;;;;;5.00;4.50;;;;;;;14.80;63.30;101613.75;6182272;23;20379;-67
2023/01/06 09:31:34;;;;;;;4.68;4.22;;;;;;;14.82;62.88;101618.06;6182550;23;20088;-67
2023/01/06 09:34:00;;;;;;;5.25;4.43;;;;;;;14.85;63.27;101630.47;6182631;23;20013;-68
2023/01/06 09:36:27;;;;;;;4.72;4.32;;;;;;;14.88;63.41;101641.09;6156184;23;20037;-68
2023/01/06 09:38:54;;;;;;;4.53;4.13;;;;;;;14.91;63.10;101644.44;6182543;23;20015;-68
2023/01/06 09:41:29;;;;;;;4.88;4.20;;;;;;;14.94;63.03;101648.75;6182272;23;20013;-68
2023/01/06 09:44:26;;;;;;;5.93;4.60;;;;;;;14.98;63.38;101652.06;6182259;23;20389;-67
2023/01/06 09:46:53;;;;;;;6.10;5.07;;;;;;;15.02;62.98;101651.72;6182200;23;20020;-67
2023/01/06 09:49:27;;;;;;;7.75;5.53;;;;;;;15.03;62.81;101650.72;6182345;23;20017;-68
2023/01/06 09:51:58;;;;;;;6.07;5.45;;;;;;;15.07;63.20;101648.66;6182125;23;20078;-68
2023/01/06 09:54:32;;;;;;;6.70;5.70;;;;;;;15.10;63.05;101656.53;6182556;23;20009;-67
2023/01/06 09:57:04;;;;;;;6.55;5.30;;;;;;;15.10;63.02;101668.22;6182307;23;20087;-68
2023/01/06 09:59:47;;;;;;;5.88;5.38;;;;;;;15.10;63.15;101651.13;6182692;23;20021;-67
2023/01/06 10:02:25;;;;;;;6.53;5.93;;;;;;;15.14;63.04;101661.59;6181918;23;20017;-68
2023/01/06 10:04:51;;;;;;;6.90;6.18;;;;;;;15.13;62.70;101662.56;6156413;23;20021;-68
2023/01/06 10:07:47;;;;;;;6.18;5.57;;;;;;;15.11;62.73;101659.13;6181988;23;20017;-67
2023/01/06 10:10:25;;;;;;;8.05;6.10;;;;;;;15.10;62.63;101651.97;6131639;23;20019;-67
2023/01/06 10:12:52;;;;;;;6.70;6.10;;;;;;;15.10;62.41;101649.28;6182186;23;20021;-67
2023/01/06 10:15:56;;;;;;;8.93;6.28;;;;;;;15.11;62.60;101653.72;6182376;23;20019;-67
2023/01/06 10:18:40;;;;;;;6.55;5.95;;;;;;;15.18;62.72;101657.66;6182833;23;20082;-68
2023/01/06 10:21:28;;;;;;;7.57;5.97;;;;;;;15.22;62.55;101653.75;6182205;23;20095;-68
2023/01/06 10:24:01;;;;;;;7.40;6.60;;;;;;;15.29;62.80;101655.97;6181936;23;20044;-68
2023/01/06 10:26:49;;;;;;;8.05;6.88;;;;;;;15.30;62.49;101654.97;6181877;23;20041;-68
2023/01/06 10:29:18;;;;;;;7.78;6.32;;;;;;;15.32;62.68;101653.03;6181876;23;20124;-67
2023/01/06 10:31:47;;;;;;;7.70;6.30;;;;;;;15.35;62.50;101666.31;6155422;23;20013;-68
2023/01/06 10:34:21;;;;;;;6.80;6.05;;;;;;;15.36;62.43;101658.06;6182321;23;20040;-68
2023/01/06 10:36:55;;;;;;;6.75;5.45;;;;;;;15.42;62.51;101651.31;6182223;23;20074;-68
2023/01/06 10:39:26;;;;;;;7.35;6.35;;;;;;;15.46;62.03;101647.38;6182229;23;20092;-67
2023/01/06 10:43:01;;;;;;;6.10;5.50;;;;;;;15.55;62.24;101641.25;6155484;22;20020;-68
2023/01/06 10:45:36;;;;;;;7.28;5.47;;;;;;;15.67;62.12;101648.44;6062454;23;20019;-68
2023/01/06 10:48:05;;;;;;;6.90;5.47;;;;;;;15.75;62.27;101647.84;6176778;23;20024;-68
2023/01/06 10:50:33;;;;;;;6.18;5.57;;;;;;;15.80;61.83;101642.91;6181972;23;20013;-68
2023/01/06 10:53:00;;;;;;;7.15;5.90;;;;;;;15.83;61.84;101645.38;6181621;23;20024;-68
2023/01/06 10:55:47;;;;;;;8.00;5.80;;;;;;;15.89;61.67;101647.59;6181801;23;20024;-68
2023/01/06 10:58:34;;;;;;;6.63;5.97;;;;;;;15.98;61.39;101646.84;6182122;23;20020;-69
2023/01/06 11:01:15;;;;;;;12.10;6.13;;;;;;;16.07;61.61;101656.06;6181535;23;20021;-69
2023/01/06 11:03:44;;;;;;;5.78;5.22;;;;;;;16.10;61.38;101653.97;6181599;23;20352;-68
2023/01/06 11:06:26;;;;;;;9.82;6.20;;;;;;;16.10;61.09;101653.97;6181533;22;20028;-68
2023/01/06 11:08:54;;;;;;;5.78;4.78;;;;;;;16.10;60.53;101655.81;6181590;23;20017;-67
2023/01/06 11:11:22;;;;;;;5.47;4.55;;;;;;;16.03;60.44;101639.22;6181552;23;20017;-68
2023/01/06 11:13:58;;;;;;;5.72;3.80;;;;;;;15.98;59.86;101649.56;6181787;23;20075;-68
2023/01/06 11:16:29;;;;;;;7.63;3.75;;;;;;;15.94;60.03;101647.22;6182221;23;20025;-69
2023/01/06 11:18:59;;;;;;;7.85;4.10;;;;;;;15.88;59.59;101652.16;6182109;23;20021;-68
2023/01/06 11:21:44;;;;;;;6.63;4.53;;;;;;;15.84;59.50;101655.22;6181956;23;20043;-68
2023/01/06 11:24:17;;;;;;;9.00;5.10;;;;;;;15.85;59.77;101657.81;6182385;22;20462;-68
2023/01/06 11:26:51;;;;;;;7.28;4.85;;;;;;;15.91;59.83;101647.47;6181183;23;20027;-68
2023/01/06 11:29:27;;;;;;;6.90;5.13;;;;;;;16.02;60.19;101644.75;6181947;23;20013;-68
2023/01/06 11:31:55;;;;;;;6.15;4.90;;;;;;;16.18;60.35;101640.66;6181447;23;20040;-68
2023/01/06 11:34:26;;;;;;;7.75;4.25;;;;;;;16.38;60.58;101646.31;6181772;23;20100;-67
2023/01/06 11:36:52;;;;;;;5.65;3.67;;;;;;;16.59;60.32;101649.94;6181851;22;20100;-68
2023/01/06 11:39:33;;;;;;;6.75;4.07;;;;;;;16.76;59.93;101651.28;6182209;23;20023;-68
2023/01/06 11:42:13;;;;;;;5.93;4.03;;;;;;;16.91;59.77;101649.97;6181724;23;20427;-68
2023/01/06 11:44:41;;;;;;;4.93;4.18;;;;;;;17.02;59.66;101647.22;6155942;23;20009;-68
2023/01/06 11:47:15;;;;;;;8.07;4.97;;;;;;;17.12;59.45;101650.88;6181707;23;20017;-69
2023/01/06 11:49:51;;;;;;;5.13;4.43;;;;;;;17.22;58.89;101636.53;6181865;23;20088;-69